createdAt,value
2023-02-14T00:00:09.126Z,-1.11
2023-02-14T00:02:17.195Z,-1.13
2023-02-14T00:04:25.077Z,-1.15
2023-02-14T00:06:35.674Z,-1.14
2023-02-14T00:08:47.076Z,-1.10
2023-02-14T00:10:55.079Z,-1.16
2023-02-14T00:13:02.917Z,-1.16
2023-02-14T00:15:25.609Z,-1.17
2023-02-14T00:17:33.622Z,-1.14
2023-02-14T00:19:41.710Z,-1.19
2023-02-14T00:21:50.210Z,-1.29
2023-02-14T00:24:01.065Z,-1.27
2023-02-14T00:26:09.170Z,-1.25
2023-02-14T00:28:17.851Z,-1.19
2023-02-14T00:30:26.053Z,-1.21
2023-02-14T00:32:34.454Z,-1.24
2023-02-14T00:34:46.985Z,-1.17
2023-02-14T00:36:55.252Z,-1.24
2023-02-14T00:39:07.100Z,-1.24
2023-02-14T00:41:19.403Z,-1.31
2023-02-14T00:43:27.796Z,-1.33
2023-02-14T00:45:35.838Z,-1.38
2023-02-14T00:47:43.961Z,-1.33
2023-02-14T00:49:52.715Z,-1.29
2023-02-14T00:52:00.720Z,-1.40
2023-02-14T00:54:11.414Z,-1.42
2023-02-14T00:56:20.190Z,-1.48
2023-02-14T00:58:28.401Z,-1.40
2023-02-14T01:00:36.858Z,-1.33
2023-02-14T01:02:44.946Z,-1.27
2023-02-14T01:04:52.868Z,-1.32
2023-02-14T01:07:02.012Z,-1.28
2023-02-14T01:09:12.704Z,-1.40
2023-02-14T01:11:23.067Z,-1.43
2023-02-14T01:13:30.880Z,-1.38
2023-02-14T01:15:42.566Z,-1.44
2023-02-14T01:17:50.642Z,-1.44
2023-02-14T01:19:58.765Z,-1.46
2023-02-14T01:22:06.756Z,-1.48
2023-02-14T01:24:18.122Z,-1.48
2023-02-14T01:26:27.666Z,-1.48
2023-02-14T01:28:35.686Z,-1.51
2023-02-14T01:30:45.936Z,-1.40
2023-02-14T01:32:53.932Z,-1.45
2023-02-14T01:35:02.037Z,-1.44
2023-02-14T01:37:10.332Z,-1.33
2023-02-14T01:39:22.265Z,-1.39
2023-02-14T01:41:32.767Z,-1.49
2023-02-14T01:44:03.568Z,-1.39
2023-02-14T01:46:12.784Z,-1.45
2023-02-14T01:48:24.057Z,-1.45
2023-02-14T01:50:40.023Z,-1.49
2023-02-14T01:52:52.530Z,-1.60
2023-02-14T01:55:09.044Z,-1.56
2023-02-14T01:57:20.832Z,-1.63
2023-02-14T01:59:33.658Z,-1.59
2023-02-14T02:01:43.120Z,-1.58
2023-02-14T02:03:54.980Z,-1.60
2023-02-14T02:06:08.804Z,-1.67
2023-02-14T02:08:17.396Z,-1.67
2023-02-14T02:10:30.761Z,-1.63
2023-02-14T02:12:39.153Z,-1.62
2023-02-14T02:14:48.876Z,-1.64
2023-02-14T02:17:13.708Z,-1.62
2023-02-14T02:20:05.733Z,-1.68
2023-02-14T02:22:40.353Z,-1.59
2023-02-14T02:24:57.545Z,-1.65
2023-02-14T02:27:34.372Z,-1.65
2023-02-14T02:30:12.406Z,-1.76
2023-02-14T02:32:50.379Z,-1.82
2023-02-14T02:35:18.562Z,-1.85
2023-02-14T02:37:39.065Z,-1.83
2023-02-14T02:40:06.075Z,-1.85
2023-02-14T02:42:24.495Z,-1.90
2023-02-14T02:44:44.155Z,-1.93
2023-02-14T02:47:04.284Z,-1.87
2023-02-14T02:49:40.548Z,-1.79
2023-02-14T02:52:13.965Z,-1.75
2023-02-14T02:54:30.792Z,-1.75
2023-02-14T02:56:49.954Z,-1.83
2023-02-14T02:59:01.950Z,-1.82
2023-02-14T03:01:14.962Z,-1.66
2023-02-14T03:03:38.614Z,-1.71
2023-02-14T03:05:47.001Z,-1.80
2023-02-14T03:07:57.565Z,-1.80
2023-02-14T03:10:12.473Z,-1.77
2023-02-14T03:12:38.469Z,-1.75
2023-02-14T03:14:53.116Z,-1.66
2023-02-14T03:17:08.486Z,-1.81
2023-02-14T03:19:57.178Z,-1.86
2023-02-14T03:22:15.346Z,-1.88
2023-02-14T03:24:45.383Z,-1.84
2023-02-14T03:27:00.270Z,-1.79
2023-02-14T03:29:16.379Z,-1.80
2023-02-14T03:31:31.554Z,-1.92
2023-02-14T03:33:49.673Z,-2.13
2023-02-14T03:36:03.173Z,-2.24
2023-02-14T03:38:15.623Z,-2.07
2023-02-14T03:40:31.662Z,-2.08
2023-02-14T03:42:45.184Z,-2.06
2023-02-14T03:44:56.817Z,-2.00
2023-02-14T03:47:10.586Z,-2.14
2023-02-14T03:49:24.838Z,-2.24
2023-02-14T03:51:34.921Z,-2.48
2023-02-14T03:53:47.492Z,-2.58
2023-02-14T03:56:05.529Z,-2.67
2023-02-14T03:58:19.833Z,-2.54
2023-02-14T04:00:28.345Z,-2.39
2023-02-14T04:02:40.839Z,-2.23
2023-02-14T04:04:51.363Z,-2.36
2023-02-14T04:06:59.192Z,-2.35
2023-02-14T04:09:07.357Z,-2.34
2023-02-14T04:11:18.087Z,-2.32
2023-02-14T04:13:26.018Z,-2.36
2023-02-14T04:15:33.883Z,-2.41
2023-02-14T04:17:54.332Z,-2.43
2023-02-14T04:20:02.156Z,-2.50
2023-02-14T04:22:10.221Z,-2.51
2023-02-14T04:24:18.243Z,-2.43
2023-02-14T04:26:28.604Z,-2.45
2023-02-14T04:28:36.936Z,-2.40
2023-02-14T04:30:44.944Z,-2.34
2023-02-14T04:32:53.189Z,-2.37
2023-02-14T04:35:01.041Z,-2.51
2023-02-14T04:37:09.714Z,-2.61
2023-02-14T04:39:17.709Z,-2.62
2023-02-14T04:41:28.298Z,-2.60
2023-02-14T04:43:36.131Z,-2.62
2023-02-14T04:45:44.194Z,-2.58
2023-02-14T04:47:52.245Z,-2.50
2023-02-14T04:50:00.543Z,-2.59
2023-02-14T04:52:09.564Z,-2.63
2023-02-14T04:54:17.515Z,-2.44
2023-02-14T04:56:28.707Z,-2.57
2023-02-14T04:58:39.047Z,-2.64
2023-02-14T05:00:47.073Z,-2.64
2023-02-14T05:02:54.897Z,-2.65
2023-02-14T05:05:02.763Z,-2.60
2023-02-14T05:07:10.843Z,-2.64
2023-02-14T05:09:19.432Z,-2.73
2023-02-14T05:11:30.588Z,-2.73
2023-02-14T05:13:38.486Z,-2.61
2023-02-14T05:15:47.768Z,-2.56
2023-02-14T05:17:55.680Z,-2.68
2023-02-14T05:20:03.670Z,-2.56
2023-02-14T05:22:11.504Z,-2.65
2023-02-14T05:24:19.751Z,-2.65
2023-02-14T05:26:30.726Z,-2.58
2023-02-14T05:28:41.098Z,-2.62
2023-02-14T05:30:49.239Z,-2.70
2023-02-14T05:32:57.981Z,-2.59
2023-02-14T05:35:06.318Z,-2.63
2023-02-14T05:37:16.186Z,-2.67
2023-02-14T05:39:24.167Z,-2.75
2023-02-14T05:41:46.635Z,-2.75
2023-02-14T05:43:57.916Z,-2.65
2023-02-14T05:46:05.904Z,-2.63
2023-02-14T05:48:13.861Z,-2.62
2023-02-14T05:50:22.383Z,-2.67
2023-02-14T05:52:33.650Z,-2.65
2023-02-14T05:54:41.443Z,-2.59
2023-02-14T05:56:51.883Z,-2.64
2023-02-14T05:58:59.776Z,-2.65
2023-02-14T06:01:08.220Z,-2.72
2023-02-14T06:03:16.041Z,-2.79
2023-02-14T06:05:24.013Z,-2.77
2023-02-14T06:07:32.025Z,-2.79
2023-02-14T06:09:40.022Z,-2.77
2023-02-14T06:11:47.789Z,-2.79
2023-02-14T06:13:58.238Z,-2.74
2023-02-14T06:16:06.738Z,-2.83
2023-02-14T06:18:14.788Z,-2.96
2023-02-14T06:20:24.312Z,-2.93
2023-02-14T06:22:32.143Z,-2.89
2023-02-14T06:24:40.188Z,-2.80
2023-02-14T06:26:48.162Z,-2.91
2023-02-14T06:29:00.283Z,-2.83
2023-02-14T06:31:08.604Z,-2.86
2023-02-14T06:33:16.449Z,-2.89
2023-02-14T06:35:24.248Z,-2.73
2023-02-14T06:37:32.107Z,-2.60
2023-02-14T06:39:39.902Z,-2.73
2023-02-14T06:41:48.044Z,-2.55
2023-02-14T06:43:58.655Z,-2.63
2023-02-14T06:46:07.398Z,-2.72
2023-02-14T06:48:15.187Z,-2.72
2023-02-14T06:50:23.061Z,-2.58
2023-02-14T06:52:30.816Z,-2.60
2023-02-14T06:54:38.859Z,-2.62
2023-02-14T06:56:46.927Z,-2.56
2023-02-14T06:58:54.823Z,-2.50
2023-02-14T07:01:05.339Z,-2.46
2023-02-14T07:03:13.880Z,-2.45
2023-02-14T07:05:22.091Z,-2.40
2023-02-14T07:07:30.007Z,-2.34
2023-02-14T07:09:37.857Z,-2.30
2023-02-14T07:11:46.295Z,-2.31
2023-02-14T07:13:54.242Z,-2.37
2023-02-14T07:16:02.223Z,-2.42
2023-02-14T07:18:12.847Z,-2.47
2023-02-14T07:20:21.212Z,-2.48
2023-02-14T07:22:30.366Z,-2.39
2023-02-14T07:24:38.404Z,-2.42
2023-02-14T07:26:46.203Z,-2.39
2023-02-14T07:28:57.396Z,-2.19
2023-02-14T07:31:06.046Z,-1.99
2023-02-14T07:33:16.889Z,-1.76
2023-02-14T07:35:24.668Z,-1.80
2023-02-14T07:37:32.515Z,-1.88
2023-02-14T07:39:40.432Z,-1.76
2023-02-14T07:41:48.179Z,-1.69
2023-02-14T07:44:01.696Z,-1.64
2023-02-14T07:46:09.833Z,-1.67
2023-02-14T07:48:20.280Z,-1.64
2023-02-14T07:50:28.587Z,-1.45
2023-02-14T07:52:39.037Z,-1.26
2023-02-14T07:54:47.210Z,-1.20
2023-02-14T07:56:55.338Z,-1.02
2023-02-14T07:59:03.420Z,-0.88
2023-02-14T08:01:12.730Z,-0.91
2023-02-14T08:03:23.133Z,-0.75
2023-02-14T08:05:31.200Z,-0.66
2023-02-14T08:07:39.490Z,-0.46
2023-02-14T08:09:47.364Z,-0.26
2023-02-14T08:12:08.387Z,-0.23
2023-02-14T08:14:16.542Z,-0.27
2023-02-14T08:16:24.475Z,-0.15
2023-02-14T08:18:36.822Z,-0.37
2023-02-14T08:20:44.908Z,-0.13
2023-02-14T08:22:53.805Z,-0.21
2023-02-14T08:25:01.860Z,-0.24
2023-02-14T08:27:09.832Z,-0.34
2023-02-14T08:29:17.699Z,-0.23
2023-02-14T08:31:35.082Z,-0.44
2023-02-14T08:33:46.674Z,-0.51
2023-02-14T08:35:54.984Z,-0.32
2023-02-14T08:38:05.764Z,-0.47
2023-02-14T08:40:14.463Z,-0.43
2023-02-14T08:42:22.499Z,-0.42
2023-02-14T08:44:30.762Z,-0.40
2023-02-14T08:46:39.057Z,-0.40
2023-02-14T08:48:50.101Z,-0.25
2023-02-14T08:50:58.075Z,-0.15
2023-02-14T08:53:11.296Z,-0.13
2023-02-14T08:55:19.267Z,-0.07
2023-02-14T08:57:27.880Z,0.07
2023-02-14T08:59:35.705Z,0.13
2023-02-14T09:01:43.864Z,0.16
2023-02-14T09:03:54.426Z,0.30
2023-02-14T09:06:08.454Z,0.40
2023-02-14T09:08:16.666Z,0.45
2023-02-14T09:10:24.983Z,0.55
2023-02-14T09:12:32.860Z,0.56
2023-02-14T09:14:41.782Z,0.69
2023-02-14T09:16:50.015Z,0.88
2023-02-14T09:19:00.938Z,0.99
2023-02-14T09:21:10.774Z,1.15
2023-02-14T09:23:18.942Z,1.37
2023-02-14T09:25:27.094Z,1.55
2023-02-14T09:27:35.326Z,2.00
2023-02-14T09:29:43.413Z,3.03
2023-02-14T09:31:51.431Z,4.22
2023-02-14T09:34:14.353Z,5.81
2023-02-14T09:36:22.373Z,6.82
2023-02-14T09:38:27.599Z,7.26
2023-02-14T09:40:36.615Z,8.03
2023-02-14T09:43:02.561Z,9.23
2023-02-14T09:45:14.796Z,9.61
2023-02-14T09:47:31.418Z,10.57
2023-02-14T09:49:42.563Z,10.38
2023-02-14T09:51:55.545Z,11.45
2023-02-14T09:54:06.784Z,12.07
2023-02-14T09:56:22.368Z,13.53
2023-02-14T09:58:36.434Z,13.74
2023-02-14T10:00:50.223Z,13.38
2023-02-14T10:03:06.069Z,13.43
2023-02-14T10:05:23.165Z,12.89
2023-02-14T10:07:39.983Z,11.90
2023-02-14T10:10:00.985Z,12.50
2023-02-14T10:12:17.511Z,13.64
2023-02-14T10:14:29.861Z,12.76
2023-02-14T10:16:53.996Z,11.94
2023-02-14T10:19:09.752Z,10.67
2023-02-14T10:21:27.261Z,11.64
2023-02-14T10:23:37.947Z,9.93
2023-02-14T10:25:51.867Z,10.61
2023-02-14T10:28:04.692Z,10.45
2023-02-14T10:30:16.443Z,10.09
2023-02-14T10:32:31.162Z,10.27
2023-02-14T10:34:46.645Z,10.97
2023-02-14T10:37:11.819Z,12.06
2023-02-14T10:39:46.393Z,12.88
2023-02-14T10:41:58.908Z,12.75
2023-02-14T10:44:23.582Z,11.52
2023-02-14T10:46:39.754Z,11.92
2023-02-14T10:48:58.418Z,10.68
2023-02-14T10:51:15.629Z,12.22
2023-02-14T10:53:34.964Z,10.55
2023-02-14T10:55:50.483Z,10.51
2023-02-14T10:57:59.978Z,9.88
2023-02-14T11:00:19.890Z,11.50
2023-02-14T11:02:33.203Z,12.14
2023-02-14T11:04:42.321Z,12.61
2023-02-14T11:06:51.558Z,11.86
2023-02-14T11:09:02.320Z,10.84
2023-02-14T11:11:20.379Z,8.37
2023-02-14T11:13:34.996Z,8.05
2023-02-14T11:15:43.215Z,7.59
2023-02-14T11:17:52.047Z,6.92
2023-02-14T11:20:02.611Z,6.35
2023-02-14T11:22:10.494Z,6.09
2023-02-14T11:24:31.633Z,5.95
2023-02-14T11:26:40.039Z,5.90
2023-02-14T11:28:56.878Z,5.53
2023-02-14T11:31:05.454Z,5.67
2023-02-14T11:33:16.112Z,5.68
2023-02-14T11:35:27.792Z,5.61
2023-02-14T11:37:42.547Z,5.54
2023-02-14T11:39:55.078Z,5.50
2023-02-14T11:42:04.594Z,5.87
2023-02-14T11:44:22.601Z,6.08
2023-02-14T11:46:36.133Z,6.22
2023-02-14T11:49:01.653Z,6.46
2023-02-14T11:51:14.063Z,6.21
2023-02-14T11:53:26.476Z,6.22
2023-02-14T11:55:37.526Z,6.41
2023-02-14T11:57:45.964Z,6.46
2023-02-14T11:59:56.772Z,6.42
2023-02-14T12:02:15.775Z,6.62
2023-02-14T12:04:30.848Z,6.80
2023-02-14T12:06:39.853Z,6.82
2023-02-14T12:08:48.171Z,6.93
2023-02-14T12:11:08.275Z,6.83
2023-02-14T12:13:27.572Z,6.74
2023-02-14T12:15:40.748Z,7.04
2023-02-14T12:17:52.527Z,7.02
2023-02-14T12:20:06.773Z,7.04
2023-02-14T12:22:19.584Z,7.15
2023-02-14T12:24:35.472Z,7.30
2023-02-14T12:26:49.866Z,7.49
2023-02-14T12:29:06.128Z,7.67
2023-02-14T12:31:15.047Z,7.79
2023-02-14T12:33:26.144Z,7.79
2023-02-14T12:35:47.687Z,7.95
2023-02-14T12:38:05.879Z,7.94
2023-02-14T12:40:24.922Z,7.97
2023-02-14T12:42:52.092Z,8.07
2023-02-14T12:45:07.525Z,8.17
2023-02-14T12:47:22.926Z,8.22
2023-02-14T12:49:58.984Z,8.32
2023-02-14T12:52:30.883Z,8.36
2023-02-14T12:54:52.369Z,8.35
2023-02-14T12:57:07.763Z,8.48
2023-02-14T12:59:29.596Z,8.50
2023-02-14T13:02:23.001Z,8.49
2023-02-14T13:05:02.003Z,8.57
2023-02-14T13:07:20.630Z,8.70
2023-02-14T13:09:38.691Z,8.84
2023-02-14T13:12:02.340Z,8.90
2023-02-14T13:14:29.692Z,8.91
2023-02-14T13:16:47.855Z,8.99
2023-02-14T13:19:02.313Z,9.08
2023-02-14T13:21:15.263Z,9.15
2023-02-14T13:23:30.594Z,9.19
2023-02-14T13:25:42.941Z,9.21
2023-02-14T13:27:51.326Z,9.30
2023-02-14T13:30:06.505Z,9.23
2023-02-14T13:32:18.463Z,9.29
2023-02-14T13:34:33.072Z,9.27
2023-02-14T13:36:41.137Z,9.28
2023-02-14T13:38:52.060Z,9.32
2023-02-14T13:41:01.989Z,9.49
2023-02-14T13:43:10.208Z,9.45
2023-02-14T13:45:48.147Z,9.52
2023-02-14T13:48:06.202Z,9.59
2023-02-14T13:50:23.616Z,9.52
2023-02-14T13:52:45.379Z,9.51
2023-02-14T13:54:53.272Z,9.42
2023-02-14T13:57:02.822Z,9.64
2023-02-14T13:59:29.281Z,9.60
2023-02-14T14:01:40.820Z,9.78
2023-02-14T14:04:39.375Z,9.58
2023-02-14T14:07:22.333Z,9.63
2023-02-14T14:09:58.598Z,9.67
2023-02-14T14:12:06.772Z,9.58
2023-02-14T14:14:36.485Z,9.52
2023-02-14T14:16:59.122Z,9.51
2023-02-14T14:19:42.609Z,9.38
2023-02-14T14:22:04.825Z,9.35
2023-02-14T14:24:25.008Z,9.38
2023-02-14T14:26:40.947Z,9.37
2023-02-14T14:28:49.430Z,9.31
2023-02-14T14:30:57.965Z,9.37
2023-02-14T14:33:17.216Z,9.34
2023-02-14T14:35:29.089Z,9.32
2023-02-14T14:37:39.205Z,9.34
2023-02-14T14:39:53.936Z,9.31
2023-02-14T14:42:09.927Z,9.30
2023-02-14T14:44:18.683Z,9.34
2023-02-14T14:46:26.835Z,9.33
2023-02-14T14:48:40.426Z,9.12
2023-02-14T14:50:52.118Z,9.05
2023-02-14T14:53:03.038Z,9.04
2023-02-14T14:55:19.181Z,9.06
2023-02-14T14:57:27.540Z,8.98
2023-02-14T14:59:38.333Z,8.96
2023-02-14T15:01:48.127Z,8.91
2023-02-14T15:03:56.034Z,8.88
2023-02-14T15:06:18.047Z,8.85
2023-02-14T15:08:35.397Z,8.72
2023-02-14T15:10:43.590Z,8.65
2023-02-14T15:13:05.717Z,8.50
2023-02-14T15:15:15.732Z,8.48
2023-02-14T15:17:27.962Z,8.39
2023-02-14T15:19:41.886Z,8.29
2023-02-14T15:21:53.383Z,8.25
2023-02-14T15:24:01.581Z,8.06
2023-02-14T15:26:10.298Z,8.06
2023-02-14T15:28:30.037Z,8.03
2023-02-14T15:30:39.954Z,7.96
2023-02-14T15:32:49.664Z,7.95
2023-02-14T15:34:58.475Z,7.83
2023-02-14T15:37:11.049Z,7.72
2023-02-14T15:39:19.944Z,7.72
2023-02-14T15:41:28.520Z,7.57
2023-02-14T15:43:40.205Z,7.63
2023-02-14T15:45:51.334Z,7.41
2023-02-14T15:48:02.341Z,7.37
2023-02-14T15:50:17.237Z,7.37
2023-02-14T15:52:27.812Z,7.23
2023-02-14T15:54:40.619Z,7.13
2023-02-14T15:56:51.878Z,7.10
2023-02-14T15:59:07.030Z,7.02
2023-02-14T16:01:15.508Z,6.92
2023-02-14T16:03:26.610Z,6.98
2023-02-14T16:05:34.803Z,6.80
2023-02-14T16:07:58.923Z,6.72
2023-02-14T16:10:26.971Z,6.59
2023-02-14T16:12:38.350Z,6.49
2023-02-14T16:14:46.736Z,6.40
2023-02-14T16:17:02.641Z,6.46
2023-02-14T16:19:34.246Z,6.31
2023-02-14T16:21:42.407Z,6.22
2023-02-14T16:24:14.048Z,6.07
2023-02-14T16:26:21.968Z,5.93
2023-02-14T16:28:32.857Z,5.92
2023-02-14T16:30:43.191Z,5.79
2023-02-14T16:32:55.985Z,5.67
2023-02-14T16:35:04.102Z,5.67
2023-02-14T16:37:21.969Z,5.58
2023-02-14T16:39:36.559Z,5.52
2023-02-14T16:41:47.480Z,5.48
2023-02-14T16:43:56.117Z,5.35
2023-02-14T16:46:04.381Z,5.26
2023-02-14T16:48:12.997Z,5.17
2023-02-14T16:50:22.861Z,5.05
2023-02-14T16:52:33.043Z,4.96
2023-02-14T16:54:43.550Z,4.83
2023-02-14T16:56:56.007Z,4.77
2023-02-14T16:59:04.611Z,4.62
2023-02-14T17:01:12.903Z,4.59
2023-02-14T17:03:20.706Z,4.58
2023-02-14T17:05:29.268Z,4.63
2023-02-14T17:07:37.292Z,4.50
2023-02-14T17:09:54.656Z,4.37
2023-02-14T17:12:06.592Z,4.30
2023-02-14T17:14:16.871Z,4.15
2023-02-14T17:16:25.278Z,4.13
2023-02-14T17:18:35.158Z,4.00
2023-02-14T17:20:43.862Z,3.97
2023-02-14T17:22:52.023Z,3.93
2023-02-14T17:25:02.688Z,3.83
2023-02-14T17:27:11.569Z,3.80
2023-02-14T17:29:19.804Z,3.82
2023-02-14T17:31:28.914Z,3.73
2023-02-14T17:33:37.661Z,3.67
2023-02-14T17:35:45.662Z,3.58
2023-02-14T17:37:53.653Z,3.55
2023-02-14T17:40:04.356Z,3.53
2023-02-14T17:42:12.511Z,3.48
2023-02-14T17:44:21.068Z,3.39
2023-02-14T17:46:31.744Z,3.31
2023-02-14T17:48:39.699Z,3.26
2023-02-14T17:50:48.017Z,3.14
2023-02-14T17:52:57.364Z,3.08
2023-02-14T17:55:09.156Z,3.08
2023-02-14T17:57:17.038Z,3.10
2023-02-14T17:59:24.902Z,2.96
2023-02-14T18:01:36.364Z,3.01
2023-02-14T18:03:44.775Z,3.09
2023-02-14T18:05:52.626Z,3.05
2023-02-14T18:08:00.616Z,3.04
2023-02-14T18:10:13.420Z,2.98
2023-02-14T18:12:21.560Z,2.90
2023-02-14T18:14:30.764Z,2.88
2023-02-14T18:16:40.827Z,2.85
2023-02-14T18:18:49.791Z,2.79
2023-02-14T18:20:58.349Z,2.82
2023-02-14T18:23:07.623Z,2.78
2023-02-14T18:25:18.470Z,2.64
2023-02-14T18:27:26.334Z,2.74
2023-02-14T18:29:35.065Z,2.69
2023-02-14T18:31:45.381Z,2.69
2023-02-14T18:33:53.990Z,2.49
2023-02-14T18:36:04.900Z,2.44
2023-02-14T18:38:13.410Z,2.45
2023-02-14T18:40:24.234Z,2.45
2023-02-14T18:42:32.204Z,2.47
2023-02-14T18:44:40.207Z,2.39
2023-02-14T18:46:49.805Z,2.39
2023-02-14T18:49:00.004Z,2.33
2023-02-14T18:51:08.994Z,2.30
2023-02-14T18:53:16.944Z,2.30
2023-02-14T18:55:28.923Z,2.28
2023-02-14T18:57:37.686Z,2.29
2023-02-14T18:59:45.594Z,2.25
2023-02-14T19:01:53.652Z,2.25
2023-02-14T19:04:03.588Z,2.20
2023-02-14T19:06:13.238Z,2.16
2023-02-14T19:08:21.299Z,2.16
2023-02-14T19:10:32.209Z,2.12
2023-02-14T19:12:40.172Z,2.16
2023-02-14T19:14:48.659Z,2.13
2023-02-14T19:16:56.592Z,2.04
2023-02-14T19:19:04.853Z,1.95
2023-02-14T19:21:14.430Z,1.82
2023-02-14T19:23:22.346Z,1.83
2023-02-14T19:25:34.640Z,1.84
2023-02-14T19:27:43.150Z,1.81
2023-02-14T19:29:51.822Z,1.80
2023-02-14T19:32:00.255Z,1.75
2023-02-14T19:34:09.800Z,1.68
2023-02-14T19:36:20.234Z,1.65
2023-02-14T19:38:28.050Z,1.62
2023-02-14T19:40:38.735Z,1.65
2023-02-14T19:42:46.815Z,1.61
2023-02-14T19:44:54.996Z,1.55
2023-02-14T19:47:19.235Z,1.53
2023-02-14T19:49:32.572Z,1.52
2023-02-14T19:51:40.520Z,1.50
2023-02-14T19:53:48.866Z,1.50
2023-02-14T19:55:59.419Z,1.53
2023-02-14T19:58:07.624Z,1.53
2023-02-14T20:00:17.664Z,1.47
2023-02-14T20:02:25.853Z,1.46
2023-02-14T20:04:34.070Z,1.42
2023-02-14T20:06:42.703Z,1.41
2023-02-14T20:08:51.291Z,1.41
2023-02-14T20:11:02.156Z,1.66
2023-02-14T20:13:10.266Z,1.59
2023-02-14T20:15:18.484Z,1.55
2023-02-14T20:17:26.477Z,1.49
2023-02-14T20:19:38.916Z,1.52
2023-02-14T20:21:48.513Z,1.48
2023-02-14T20:23:57.613Z,1.60
2023-02-14T20:26:13.660Z,1.61
2023-02-14T20:28:21.599Z,1.57
2023-02-14T20:30:29.786Z,1.49
2023-02-14T20:32:38.284Z,1.44
2023-02-14T20:34:46.246Z,1.38
2023-02-14T20:37:11.261Z,1.30
2023-02-14T20:39:19.579Z,1.20
2023-02-14T20:41:34.470Z,1.14
2023-02-14T20:43:42.843Z,1.04
2023-02-14T20:45:51.133Z,0.95
2023-02-14T20:48:03.382Z,0.88
2023-02-14T20:50:12.555Z,0.84
2023-02-14T20:52:21.492Z,0.85
2023-02-14T20:54:30.863Z,1.15
2023-02-14T20:56:42.032Z,1.08
2023-02-14T20:58:50.140Z,1.17
2023-02-14T21:00:58.290Z,1.18
2023-02-14T21:03:06.669Z,1.14
2023-02-14T21:05:18.545Z,1.16
2023-02-14T21:07:31.070Z,1.12
2023-02-14T21:09:40.033Z,1.06
2023-02-14T21:11:50.814Z,1.10
2023-02-14T21:14:00.210Z,1.19
2023-02-14T21:16:10.244Z,1.18
2023-02-14T21:18:18.404Z,1.20
2023-02-14T21:20:26.355Z,1.12
2023-02-14T21:22:37.118Z,1.01
2023-02-14T21:24:45.701Z,1.00
2023-02-14T21:26:56.272Z,0.99
2023-02-14T21:29:04.148Z,1.07
2023-02-14T21:31:14.461Z,1.07
2023-02-14T21:33:22.479Z,1.11
2023-02-14T21:35:30.696Z,1.02
2023-02-14T21:37:38.987Z,0.90
2023-02-14T21:39:46.942Z,0.76
2023-02-14T21:42:00.856Z,0.62
2023-02-14T21:44:10.609Z,0.45
2023-02-14T21:46:18.548Z,0.34
2023-02-14T21:48:39.025Z,0.22
2023-02-14T21:50:47.065Z,0.15
2023-02-14T21:52:55.125Z,0.13
2023-02-14T21:55:03.319Z,0.11
2023-02-14T21:57:14.474Z,0.06
2023-02-14T21:59:25.006Z,0.02
2023-02-14T22:01:35.182Z,-0.02
2023-02-14T22:03:43.363Z,0.03
2023-02-14T22:05:51.187Z,-0.04
2023-02-14T22:07:59.276Z,-0.14
2023-02-14T22:10:09.613Z,-0.19
2023-02-14T22:12:20.431Z,-0.23
2023-02-14T22:14:29.339Z,-0.20
2023-02-14T22:16:38.331Z,-0.22
2023-02-14T22:18:47.450Z,-0.29
2023-02-14T22:20:55.366Z,-0.37
2023-02-14T22:23:03.560Z,-0.37
2023-02-14T22:25:11.710Z,-0.43
2023-02-14T22:27:22.386Z,-0.45
2023-02-14T22:29:30.332Z,-0.43
2023-02-14T22:31:41.059Z,-0.36
2023-02-14T22:33:50.320Z,-0.34
2023-02-14T22:35:59.276Z,-0.39
2023-02-14T22:38:07.457Z,-0.35
2023-02-14T22:40:15.932Z,-0.33
2023-02-14T22:42:26.524Z,-0.29
2023-02-14T22:44:34.617Z,-0.36
2023-02-14T22:46:42.888Z,-0.46
2023-02-14T22:48:52.669Z,-0.53
2023-02-14T22:51:09.115Z,-0.62
2023-02-14T22:53:20.044Z,-0.65
2023-02-14T22:55:28.533Z,-0.64
2023-02-14T22:57:38.940Z,-0.62
2023-02-14T22:59:46.937Z,-0.75
2023-02-14T23:01:56.352Z,-0.68
2023-02-14T23:04:05.870Z,-0.48
2023-02-14T23:06:14.709Z,-0.47
2023-02-14T23:08:22.627Z,-0.23
2023-02-14T23:10:30.581Z,-0.14
2023-02-14T23:12:53.448Z,-0.19
2023-02-14T23:15:13.968Z,-0.20
2023-02-14T23:17:34.128Z,-0.21
2023-02-14T23:19:54.443Z,-0.13
2023-02-14T23:22:04.041Z,-0.11
2023-02-14T23:24:11.865Z,-0.07
2023-02-14T23:26:22.407Z,-0.02
2023-02-14T23:28:33.334Z,-0.03
2023-02-14T23:30:41.401Z,-0.08
2023-02-14T23:32:49.747Z,-0.15
2023-02-14T23:34:57.950Z,-0.17
2023-02-14T23:37:09.182Z,-0.13
2023-02-14T23:39:17.246Z,-0.10
2023-02-14T23:41:37.468Z,-0.08
2023-02-14T23:43:48.566Z,-0.17
2023-02-14T23:45:58.913Z,-0.10
2023-02-14T23:48:08.122Z,-0.13
2023-02-14T23:50:16.161Z,-0.18
2023-02-14T23:52:23.894Z,-0.19
2023-02-14T23:54:32.064Z,-0.26
2023-02-14T23:56:40.752Z,-0.30
2023-02-14T23:58:51.734Z,-0.27
